createdAt,value
2023-05-09T00:01:31.809Z,4.89
2023-05-09T00:03:59.805Z,4.91
2023-05-09T00:06:27.997Z,4.93
2023-05-09T00:08:55.942Z,4.79
2023-05-09T00:11:23.238Z,4.91
2023-05-09T00:13:51.234Z,4.83
2023-05-09T00:16:18.922Z,4.49
2023-05-09T00:18:47.594Z,4.78
2023-05-09T00:21:14.646Z,4.76
2023-05-09T00:23:41.717Z,4.47
2023-05-09T00:26:10.454Z,4.74
2023-05-09T00:28:39.140Z,4.56
2023-05-09T00:31:06.204Z,4.70
2023-05-09T00:33:33.215Z,4.80
2023-05-09T00:36:00.377Z,4.74
2023-05-09T00:38:27.383Z,4.78
2023-05-09T00:40:54.397Z,4.76
2023-05-09T00:43:21.733Z,4.75
2023-05-09T00:45:49.571Z,4.74
2023-05-09T00:48:16.952Z,4.73
2023-05-09T00:50:44.228Z,4.73
2023-05-09T00:53:11.959Z,4.67
2023-05-09T00:55:39.137Z,4.65
2023-05-09T00:58:06.375Z,4.71
2023-05-09T01:00:33.768Z,4.69
2023-05-09T01:03:01.573Z,4.68
2023-05-09T01:05:40.778Z,4.62
2023-05-09T01:08:18.152Z,4.64
2023-05-09T01:11:09.650Z,4.70
2023-05-09T01:13:36.631Z,4.62
2023-05-09T01:16:16.786Z,4.54
2023-05-09T01:19:00.371Z,4.56
2023-05-09T01:21:30.634Z,4.53
2023-05-09T01:24:16.410Z,4.56
2023-05-09T01:27:07.534Z,4.48
2023-05-09T01:29:39.511Z,4.35
2023-05-09T01:32:10.913Z,4.32
2023-05-09T01:34:40.131Z,4.24
2023-05-09T01:37:07.511Z,4.31
2023-05-09T01:39:38.677Z,4.30
2023-05-09T01:42:08.537Z,4.32
2023-05-09T01:44:39.255Z,4.24
2023-05-09T01:47:07.920Z,4.23
2023-05-09T01:49:37.902Z,4.21
2023-05-09T01:52:09.131Z,4.17
2023-05-09T01:54:38.850Z,4.23
2023-05-09T01:57:08.445Z,4.17
2023-05-09T01:59:36.558Z,4.25
2023-05-09T02:02:04.732Z,4.19
2023-05-09T02:04:34.022Z,4.25
2023-05-09T02:07:02.756Z,4.22
2023-05-09T02:09:29.899Z,4.21
2023-05-09T02:11:56.919Z,4.14
2023-05-09T02:14:24.157Z,4.06
2023-05-09T02:16:51.604Z,3.81
2023-05-09T02:19:18.822Z,4.13
2023-05-09T02:21:46.015Z,4.22
2023-05-09T02:24:13.093Z,4.24
2023-05-09T02:26:41.002Z,4.27
2023-05-09T02:29:08.800Z,4.26
2023-05-09T02:31:37.124Z,4.30
2023-05-09T02:34:05.614Z,4.32
2023-05-09T02:36:35.365Z,4.37
2023-05-09T02:39:02.843Z,4.37
2023-05-09T02:41:30.924Z,4.34
2023-05-09T02:43:57.932Z,4.42
2023-05-09T02:46:24.998Z,4.36
2023-05-09T02:48:52.717Z,4.45
2023-05-09T02:51:20.102Z,4.34
2023-05-09T02:53:47.160Z,4.47
2023-05-09T02:56:14.244Z,4.55
2023-05-09T02:58:41.285Z,4.64
2023-05-09T03:01:08.394Z,4.68
2023-05-09T03:03:35.626Z,4.78
2023-05-09T03:06:04.891Z,4.88
2023-05-09T03:08:32.022Z,4.96
2023-05-09T03:10:59.109Z,5.01
2023-05-09T03:13:26.459Z,5.08
2023-05-09T03:15:53.612Z,5.18
2023-05-09T03:18:20.908Z,5.27
2023-05-09T03:20:47.921Z,5.35
2023-05-09T03:23:15.193Z,5.47
2023-05-09T03:25:42.240Z,5.48
2023-05-09T03:28:09.278Z,5.66
2023-05-09T03:30:36.835Z,5.70
2023-05-09T03:33:07.910Z,5.84
2023-05-09T03:35:34.917Z,5.93
2023-05-09T03:38:02.679Z,5.97
2023-05-09T03:40:29.752Z,6.14
2023-05-09T03:43:05.513Z,6.26
2023-05-09T03:45:32.827Z,6.36
2023-05-09T03:48:00.377Z,6.44
2023-05-09T03:50:27.478Z,6.46
2023-05-09T03:52:57.523Z,6.77
2023-05-09T03:55:25.056Z,6.92
2023-05-09T03:57:52.088Z,7.07
2023-05-09T04:00:19.705Z,7.26
2023-05-09T04:02:54.000Z,7.41
2023-05-09T04:05:33.811Z,7.68
2023-05-09T04:08:01.615Z,7.87
2023-05-09T04:10:30.232Z,8.09
2023-05-09T04:12:57.626Z,8.33
2023-05-09T04:15:24.810Z,8.22
2023-05-09T04:17:51.902Z,8.71
2023-05-09T04:20:18.983Z,8.86
2023-05-09T04:22:47.035Z,8.97
2023-05-09T04:25:17.133Z,9.12
2023-05-09T04:27:45.950Z,9.26
2023-05-09T04:30:13.339Z,9.47
2023-05-09T04:32:45.854Z,9.67
2023-05-09T04:35:14.312Z,9.92
2023-05-09T04:37:45.583Z,10.19
2023-05-09T04:40:13.530Z,10.46
2023-05-09T04:42:47.711Z,10.58
2023-05-09T04:45:15.793Z,10.63
2023-05-09T04:47:44.079Z,10.72
2023-05-09T04:50:11.662Z,10.73
2023-05-09T04:52:38.710Z,10.72
2023-05-09T04:55:06.506Z,10.73
2023-05-09T04:57:38.615Z,10.72
2023-05-09T05:00:11.676Z,10.74
2023-05-09T05:02:39.575Z,10.85
2023-05-09T05:05:12.139Z,10.86
2023-05-09T05:07:42.381Z,10.86
2023-05-09T05:10:11.518Z,10.85
2023-05-09T05:12:41.014Z,10.73
2023-05-09T05:15:11.571Z,10.81
2023-05-09T05:17:39.812Z,10.99
2023-05-09T05:20:10.989Z,11.05
2023-05-09T05:22:48.045Z,10.83
2023-05-09T05:25:17.859Z,11.16
2023-05-09T05:27:57.215Z,11.19
2023-05-09T05:30:29.942Z,11.37
2023-05-09T05:32:58.585Z,11.71
2023-05-09T05:35:28.393Z,11.79
2023-05-09T05:37:56.375Z,11.96
2023-05-09T05:40:23.496Z,12.09
2023-05-09T05:42:52.565Z,12.29
2023-05-09T05:45:20.246Z,12.26
2023-05-09T05:47:51.089Z,12.33
2023-05-09T05:50:18.963Z,12.52
2023-05-09T05:52:46.167Z,12.58
2023-05-09T05:55:15.934Z,12.58
2023-05-09T05:57:43.214Z,12.75
2023-05-09T06:00:15.059Z,12.84
2023-05-09T06:02:50.069Z,12.86
2023-05-09T06:05:28.614Z,13.05
2023-05-09T06:07:55.610Z,13.41
2023-05-09T06:10:22.763Z,13.72
2023-05-09T06:12:49.937Z,13.87
2023-05-09T06:15:18.041Z,14.09
2023-05-09T06:17:48.525Z,14.14
2023-05-09T06:20:15.596Z,14.26
2023-05-09T06:22:42.657Z,14.25
2023-05-09T06:25:10.593Z,14.64
2023-05-09T06:27:38.526Z,14.90
2023-05-09T06:30:21.423Z,14.91
2023-05-09T06:32:52.216Z,14.87
2023-05-09T06:35:19.340Z,14.68
2023-05-09T06:37:48.433Z,14.59
2023-05-09T06:40:16.449Z,14.21
2023-05-09T06:42:43.556Z,14.24
2023-05-09T06:45:11.634Z,14.04
2023-05-09T06:47:38.749Z,13.46
2023-05-09T06:50:06.439Z,13.52
2023-05-09T06:52:33.499Z,13.63
2023-05-09T06:55:00.607Z,13.86
2023-05-09T06:57:27.933Z,13.97
2023-05-09T06:59:54.989Z,14.20
2023-05-09T07:02:22.144Z,14.06
2023-05-09T07:04:49.305Z,14.19
2023-05-09T07:07:16.455Z,14.10
2023-05-09T07:09:43.636Z,13.98
2023-05-09T07:12:10.750Z,13.87
2023-05-09T07:14:38.346Z,13.80
2023-05-09T07:17:18.261Z,13.91
2023-05-09T07:19:49.560Z,13.92
2023-05-09T07:22:16.553Z,14.07
2023-05-09T07:24:46.677Z,14.06
2023-05-09T07:27:14.231Z,13.95
2023-05-09T07:29:41.323Z,13.89
2023-05-09T07:32:09.264Z,13.82
2023-05-09T07:34:36.760Z,13.76
2023-05-09T07:37:03.952Z,13.81
2023-05-09T07:39:31.107Z,13.87
2023-05-09T07:41:58.467Z,13.90
2023-05-09T07:44:25.896Z,13.90
2023-05-09T07:46:55.508Z,13.83
2023-05-09T07:49:22.729Z,13.83
2023-05-09T07:51:49.823Z,13.86
2023-05-09T07:54:16.978Z,13.92
2023-05-09T07:56:44.101Z,14.19
2023-05-09T07:59:12.420Z,14.38
2023-05-09T08:01:39.789Z,14.64
2023-05-09T08:04:09.206Z,14.84
2023-05-09T08:06:36.815Z,14.97
2023-05-09T08:09:04.938Z,15.33
2023-05-09T08:11:36.185Z,15.55
2023-05-09T08:14:03.568Z,15.86
2023-05-09T08:16:31.164Z,15.73
2023-05-09T08:18:58.385Z,15.79
2023-05-09T08:21:26.666Z,15.91
2023-05-09T08:23:53.980Z,15.95
2023-05-09T08:26:22.775Z,16.02
2023-05-09T08:28:50.013Z,16.03
2023-05-09T08:31:17.250Z,16.07
2023-05-09T08:33:44.458Z,16.30
2023-05-09T08:36:11.703Z,16.48
2023-05-09T08:38:40.721Z,16.50
2023-05-09T08:41:07.993Z,16.39
2023-05-09T08:43:35.839Z,16.07
2023-05-09T08:46:08.740Z,15.89
2023-05-09T08:48:39.127Z,15.68
2023-05-09T08:51:07.211Z,15.58
2023-05-09T08:53:34.949Z,15.49
2023-05-09T08:56:04.024Z,15.49
2023-05-09T08:58:32.096Z,15.74
2023-05-09T09:01:01.590Z,15.96
2023-05-09T09:03:28.958Z,15.89
2023-05-09T09:05:56.743Z,16.00
2023-05-09T09:08:25.232Z,15.93
2023-05-09T09:10:52.929Z,15.90
2023-05-09T09:13:22.076Z,15.73
2023-05-09T09:15:49.762Z,15.54
2023-05-09T09:18:22.279Z,15.62
2023-05-09T09:21:00.039Z,15.63
2023-05-09T09:23:29.296Z,15.73
2023-05-09T09:26:01.376Z,15.63
2023-05-09T09:28:29.057Z,15.55
2023-05-09T09:30:56.372Z,15.55
2023-05-09T09:33:25.312Z,15.50
2023-05-09T09:35:53.854Z,15.54
2023-05-09T09:38:22.055Z,15.54
2023-05-09T09:40:52.511Z,15.48
2023-05-09T09:43:20.005Z,15.29
2023-05-09T09:45:51.479Z,15.24
2023-05-09T09:48:18.865Z,15.19
2023-05-09T09:50:48.485Z,14.89
2023-05-09T09:53:16.462Z,14.97
2023-05-09T09:55:52.152Z,14.91
2023-05-09T09:58:25.141Z,15.00
2023-05-09T10:01:16.902Z,15.13
2023-05-09T10:03:48.318Z,15.16
2023-05-09T10:06:17.068Z,15.29
2023-05-09T10:08:49.098Z,15.53
2023-05-09T10:11:16.608Z,15.70
2023-05-09T10:13:44.722Z,15.84
2023-05-09T10:16:13.626Z,15.91
2023-05-09T10:18:43.262Z,15.59
2023-05-09T10:21:15.343Z,15.70
2023-05-09T10:23:48.681Z,15.66
2023-05-09T10:26:23.106Z,15.78
2023-05-09T10:28:55.840Z,15.90
2023-05-09T10:31:27.084Z,16.11
2023-05-09T10:33:56.044Z,16.07
2023-05-09T10:36:26.528Z,16.13
2023-05-09T10:38:55.555Z,16.12
2023-05-09T10:41:23.888Z,16.09
2023-05-09T10:43:51.510Z,16.10
2023-05-09T10:46:19.436Z,16.04
2023-05-09T10:48:48.984Z,16.21
2023-05-09T10:51:17.552Z,16.57
2023-05-09T10:53:49.876Z,16.64
2023-05-09T10:56:29.886Z,16.61
2023-05-09T10:58:57.492Z,16.50
2023-05-09T11:01:37.580Z,16.22
2023-05-09T11:04:23.937Z,16.08
2023-05-09T11:06:54.006Z,16.17
2023-05-09T11:09:34.654Z,15.95
2023-05-09T11:12:02.366Z,15.77
2023-05-09T11:14:49.564Z,15.66
2023-05-09T11:17:22.947Z,15.77
2023-05-09T11:19:50.469Z,15.89
2023-05-09T11:22:32.828Z,15.98
2023-05-09T11:25:08.144Z,16.19
2023-05-09T11:27:49.976Z,16.45
2023-05-09T11:30:19.843Z,16.52
2023-05-09T11:32:52.473Z,16.60
2023-05-09T11:35:21.603Z,16.54
2023-05-09T11:37:54.804Z,16.75
2023-05-09T11:40:24.211Z,16.73
2023-05-09T11:42:58.362Z,16.69
2023-05-09T11:45:28.775Z,16.54
2023-05-09T11:48:01.223Z,16.61
2023-05-09T11:50:28.771Z,16.71
2023-05-09T11:52:56.511Z,16.67
2023-05-09T11:55:25.666Z,16.64
2023-05-09T11:57:54.491Z,16.16
2023-05-09T12:00:23.813Z,16.66
2023-05-09T12:02:51.823Z,16.65
2023-05-09T12:05:21.354Z,16.67
2023-05-09T12:07:48.991Z,16.63
2023-05-09T12:10:23.364Z,16.66
2023-05-09T12:12:53.019Z,16.83
2023-05-09T12:15:21.791Z,16.88
2023-05-09T12:18:03.213Z,16.99
2023-05-09T12:20:48.148Z,16.95
2023-05-09T12:23:15.449Z,16.87
2023-05-09T12:25:56.905Z,16.99
2023-05-09T12:28:25.545Z,17.09
2023-05-09T12:30:54.033Z,17.10
2023-05-09T12:33:21.447Z,17.21
2023-05-09T12:36:00.856Z,17.18
2023-05-09T12:38:28.150Z,17.11
2023-05-09T12:41:03.967Z,17.09
2023-05-09T12:43:36.556Z,16.88
2023-05-09T12:46:04.600Z,16.73
2023-05-09T12:48:38.431Z,16.72
2023-05-09T12:51:08.359Z,16.53
2023-05-09T12:53:42.375Z,16.23
2023-05-09T12:56:17.331Z,16.07
2023-05-09T12:58:54.212Z,15.90
2023-05-09T13:01:27.917Z,15.72
2023-05-09T13:04:06.135Z,15.67
2023-05-09T13:06:34.911Z,15.49
2023-05-09T13:09:05.847Z,15.41
2023-05-09T13:11:33.370Z,15.32
2023-05-09T13:14:00.565Z,15.30
2023-05-09T13:16:28.198Z,15.29
2023-05-09T13:18:55.499Z,15.21
2023-05-09T13:21:22.631Z,15.21
2023-05-09T13:23:51.296Z,15.20
2023-05-09T13:26:18.600Z,15.14
2023-05-09T13:28:45.826Z,15.10
2023-05-09T13:31:12.862Z,14.98
2023-05-09T13:33:40.209Z,14.96
2023-05-09T13:36:07.562Z,14.98
2023-05-09T13:38:38.865Z,14.91
2023-05-09T13:41:10.070Z,14.80
2023-05-09T13:43:39.228Z,14.85
2023-05-09T13:46:06.587Z,14.71
2023-05-09T13:48:33.709Z,14.78
2023-05-09T13:51:01.529Z,14.70
2023-05-09T13:53:28.781Z,14.43
2023-05-09T13:55:55.819Z,14.75
2023-05-09T13:58:23.032Z,14.71
2023-05-09T14:00:50.422Z,14.64
2023-05-09T14:03:17.718Z,14.69
2023-05-09T14:05:45.042Z,14.68
2023-05-09T14:08:12.369Z,14.65
2023-05-09T14:10:39.432Z,14.60
2023-05-09T14:13:08.532Z,14.51
2023-05-09T14:15:35.999Z,14.50
2023-05-09T14:18:03.356Z,14.48
2023-05-09T14:20:30.431Z,14.43
2023-05-09T14:23:00.721Z,14.49
2023-05-09T14:25:28.024Z,14.34
2023-05-09T14:27:55.159Z,13.62
2023-05-09T14:30:22.263Z,14.41
2023-05-09T14:32:49.341Z,14.30
2023-05-09T14:35:16.519Z,14.41
2023-05-09T14:37:43.766Z,14.46
2023-05-09T14:40:11.001Z,14.48
2023-05-09T14:42:38.165Z,14.54
2023-05-09T14:45:07.316Z,14.51
2023-05-09T14:47:34.476Z,14.54
2023-05-09T14:50:01.527Z,14.66
2023-05-09T14:52:31.416Z,14.65
2023-05-09T14:54:59.895Z,14.80
2023-05-09T14:57:27.018Z,14.81
2023-05-09T14:59:54.046Z,14.53
2023-05-09T15:02:21.098Z,14.83
2023-05-09T15:04:48.131Z,14.83
2023-05-09T15:07:15.243Z,14.89
2023-05-09T15:09:42.334Z,14.92
2023-05-09T15:12:09.515Z,14.93
2023-05-09T15:14:36.871Z,14.95
2023-05-09T15:17:04.458Z,14.70
2023-05-09T15:19:32.612Z,15.00
2023-05-09T15:22:00.651Z,14.95
2023-05-09T15:24:27.851Z,15.00
2023-05-09T15:26:54.892Z,14.96
2023-05-09T15:29:22.050Z,14.94
2023-05-09T15:31:49.219Z,14.89
2023-05-09T15:34:17.138Z,14.84
2023-05-09T15:36:44.336Z,14.85
2023-05-09T15:39:11.527Z,14.88
2023-05-09T15:41:38.580Z,14.79
2023-05-09T15:44:05.568Z,14.86
2023-05-09T15:46:33.265Z,14.80
2023-05-09T15:49:00.694Z,14.86
2023-05-09T15:51:30.208Z,14.78
2023-05-09T15:53:57.281Z,14.86
2023-05-09T15:56:24.406Z,14.77
2023-05-09T15:58:51.463Z,14.80
2023-05-09T16:01:18.749Z,14.76
2023-05-09T16:03:46.117Z,14.73
2023-05-09T16:06:13.563Z,14.62
2023-05-09T16:08:40.764Z,14.60
2023-05-09T16:11:08.093Z,14.62
2023-05-09T16:13:36.049Z,14.55
2023-05-09T16:16:03.724Z,14.51
2023-05-09T16:18:30.911Z,14.54
2023-05-09T16:20:57.992Z,14.31
2023-05-09T16:23:26.078Z,14.54
2023-05-09T16:25:54.117Z,14.51
2023-05-09T16:28:23.649Z,14.37
2023-05-09T16:30:51.726Z,14.43
2023-05-09T16:33:18.812Z,14.38
2023-05-09T16:35:46.668Z,14.33
2023-05-09T16:38:13.861Z,14.34
2023-05-09T16:40:40.903Z,14.20
2023-05-09T16:43:07.958Z,14.28
2023-05-09T16:45:35.186Z,14.21
2023-05-09T16:48:02.605Z,14.16
2023-05-09T16:50:30.023Z,14.09
2023-05-09T16:52:57.126Z,14.02
2023-05-09T16:55:24.260Z,13.92
2023-05-09T16:57:51.306Z,13.90
2023-05-09T17:00:18.891Z,13.86
2023-05-09T17:02:46.010Z,13.80
2023-05-09T17:05:13.137Z,13.72
2023-05-09T17:07:40.155Z,13.56
2023-05-09T17:10:07.670Z,13.52
2023-05-09T17:12:35.310Z,13.41
2023-05-09T17:15:02.446Z,13.28
2023-05-09T17:17:32.130Z,13.04
2023-05-09T17:20:01.073Z,13.27
2023-05-09T17:22:30.982Z,13.02
2023-05-09T17:24:58.059Z,13.11
2023-05-09T17:27:25.844Z,13.06
2023-05-09T17:29:52.869Z,13.03
2023-05-09T17:32:19.923Z,12.97
2023-05-09T17:34:47.073Z,12.90
2023-05-09T17:37:14.214Z,12.77
2023-05-09T17:39:42.436Z,12.76
2023-05-09T17:42:10.335Z,12.63
2023-05-09T17:44:39.458Z,12.60
2023-05-09T17:47:06.685Z,12.53
2023-05-09T17:49:33.706Z,12.45
2023-05-09T17:52:01.478Z,12.39
2023-05-09T17:54:29.343Z,12.30
2023-05-09T17:56:59.305Z,12.08
2023-05-09T17:59:26.338Z,12.21
2023-05-09T18:01:54.423Z,12.19
2023-05-09T18:04:22.029Z,12.16
2023-05-09T18:06:50.009Z,12.04
2023-05-09T18:09:17.496Z,12.11
2023-05-09T18:11:44.721Z,12.09
2023-05-09T18:14:13.113Z,12.00
2023-05-09T18:16:40.247Z,11.76
2023-05-09T18:19:07.421Z,11.77
2023-05-09T18:21:34.546Z,11.85
2023-05-09T18:24:01.622Z,11.78
2023-05-09T18:26:28.859Z,11.72
2023-05-09T18:28:55.903Z,11.60
2023-05-09T18:31:22.891Z,11.59
2023-05-09T18:33:50.293Z,11.56
2023-05-09T18:36:17.305Z,11.52
2023-05-09T18:38:44.656Z,11.40
2023-05-09T18:41:12.858Z,11.46
2023-05-09T18:43:45.947Z,11.45
2023-05-09T18:46:18.104Z,11.36
2023-05-09T18:48:46.042Z,11.37
2023-05-09T18:51:13.273Z,11.28
2023-05-09T18:53:40.599Z,11.35
2023-05-09T18:56:08.978Z,11.18
2023-05-09T18:58:36.962Z,11.17
2023-05-09T19:01:04.691Z,11.19
2023-05-09T19:03:32.180Z,11.27
2023-05-09T19:06:00.075Z,10.93
2023-05-09T19:08:27.449Z,11.21
2023-05-09T19:10:54.718Z,11.19
2023-05-09T19:13:21.947Z,11.21
2023-05-09T19:15:49.201Z,11.08
2023-05-09T19:18:16.622Z,11.18
2023-05-09T19:20:43.821Z,11.09
2023-05-09T19:23:12.221Z,11.16
2023-05-09T19:25:39.357Z,11.13
2023-05-09T19:28:06.687Z,11.07
2023-05-09T19:30:34.250Z,11.10
2023-05-09T19:33:01.439Z,11.05
2023-05-09T19:35:28.417Z,11.07
2023-05-09T19:37:55.436Z,11.08
2023-05-09T19:40:22.543Z,11.08
2023-05-09T19:42:49.565Z,11.11
2023-05-09T19:45:16.724Z,11.05
2023-05-09T19:47:43.853Z,11.02
2023-05-09T19:50:11.174Z,10.99
2023-05-09T19:52:38.300Z,11.04
2023-05-09T19:55:06.147Z,11.04
2023-05-09T19:57:33.502Z,11.04
2023-05-09T20:00:00.572Z,10.99
2023-05-09T20:02:27.743Z,11.06
2023-05-09T20:04:54.827Z,10.83
2023-05-09T20:07:21.812Z,10.94
2023-05-09T20:09:48.921Z,10.84
2023-05-09T20:12:16.015Z,10.89
2023-05-09T20:14:44.375Z,10.86
2023-05-09T20:17:11.506Z,10.93
2023-05-09T20:19:38.768Z,10.94
2023-05-09T20:22:06.699Z,10.95
2023-05-09T20:24:33.796Z,10.95
2023-05-09T20:27:02.595Z,10.82
2023-05-09T20:29:29.640Z,10.89
2023-05-09T20:31:57.122Z,10.76
2023-05-09T20:34:24.859Z,10.78
2023-05-09T20:36:55.199Z,10.84
2023-05-09T20:39:23.286Z,10.78
2023-05-09T20:41:51.586Z,10.71
2023-05-09T20:44:19.309Z,10.64
2023-05-09T20:46:46.453Z,10.62
2023-05-09T20:49:13.994Z,10.58
2023-05-09T20:51:41.326Z,10.67
2023-05-09T20:54:08.555Z,10.66
2023-05-09T20:56:35.870Z,10.77
2023-05-09T20:59:04.457Z,10.82
2023-05-09T21:01:35.542Z,10.86
2023-05-09T21:04:05.898Z,10.79
2023-05-09T21:06:33.364Z,10.91
2023-05-09T21:09:00.606Z,10.93
2023-05-09T21:11:27.787Z,10.95
2023-05-09T21:13:54.800Z,10.95
2023-05-09T21:16:22.215Z,10.93
2023-05-09T21:18:49.270Z,10.91
2023-05-09T21:21:16.386Z,10.93
2023-05-09T21:23:43.521Z,10.89
2023-05-09T21:26:10.511Z,10.87
2023-05-09T21:28:37.560Z,10.86
2023-05-09T21:31:04.839Z,10.56
2023-05-09T21:33:31.936Z,10.80
2023-05-09T21:35:59.487Z,10.83
2023-05-09T21:38:26.543Z,10.82
2023-05-09T21:40:53.650Z,10.77
2023-05-09T21:43:20.667Z,10.62
2023-05-09T21:45:47.649Z,10.79
2023-05-09T21:48:14.740Z,10.62
2023-05-09T21:50:46.108Z,10.77
2023-05-09T21:53:14.387Z,10.63
2023-05-09T21:55:41.580Z,10.60
2023-05-09T21:58:08.672Z,10.75
2023-05-09T22:00:35.862Z,10.75
2023-05-09T22:03:03.196Z,10.68
2023-05-09T22:05:30.374Z,10.75
2023-05-09T22:07:57.377Z,10.68
2023-05-09T22:10:24.503Z,10.69
2023-05-09T22:12:51.648Z,10.58
2023-05-09T22:15:18.681Z,10.60
2023-05-09T22:17:45.968Z,10.34
2023-05-09T22:20:13.069Z,10.57
2023-05-09T22:22:40.341Z,10.55
2023-05-09T22:25:07.526Z,10.47
2023-05-09T22:27:34.661Z,10.40
2023-05-09T22:30:02.914Z,10.49
2023-05-09T22:32:32.794Z,10.42
2023-05-09T22:34:59.905Z,10.40
2023-05-09T22:37:26.998Z,10.34
2023-05-09T22:39:54.085Z,10.44
2023-05-09T22:42:21.117Z,10.49
2023-05-09T22:44:49.900Z,10.49
2023-05-09T22:47:17.034Z,10.42
2023-05-09T22:49:45.729Z,10.40
2023-05-09T22:52:13.101Z,10.43
2023-05-09T22:54:40.667Z,10.47
2023-05-09T22:57:07.730Z,10.37
2023-05-09T22:59:34.881Z,10.51
2023-05-09T23:02:01.913Z,10.47
2023-05-09T23:04:28.996Z,10.49
2023-05-09T23:06:56.270Z,10.36
2023-05-09T23:09:23.475Z,10.36
2023-05-09T23:11:50.497Z,10.51
2023-05-09T23:14:17.697Z,10.43
2023-05-09T23:16:44.788Z,10.52
2023-05-09T23:19:11.819Z,10.52
2023-05-09T23:21:38.900Z,10.42
2023-05-09T23:24:06.288Z,10.53
2023-05-09T23:26:33.538Z,10.51
2023-05-09T23:29:00.558Z,10.14
2023-05-09T23:31:27.614Z,10.47
2023-05-09T23:33:54.741Z,10.47
2023-05-09T23:36:21.882Z,10.47
2023-05-09T23:38:49.029Z,10.40
2023-05-09T23:41:16.129Z,10.41
2023-05-09T23:43:43.276Z,10.43
2023-05-09T23:46:10.288Z,10.32
2023-05-09T23:48:37.489Z,10.38
2023-05-09T23:51:04.721Z,10.29
2023-05-09T23:53:35.149Z,10.26
2023-05-09T23:56:03.004Z,10.23
2023-05-09T23:58:30.324Z,9.98
